createdAt,value
2022-08-07T00:02:36.670Z,20.11
2022-08-07T00:07:27.388Z,20.05
2022-08-07T00:12:32.666Z,19.84
2022-08-07T00:17:37.278Z,19.78
2022-08-07T00:22:42.937Z,19.76
2022-08-07T00:27:56.733Z,19.75
2022-08-07T00:33:02.762Z,19.67
2022-08-07T00:38:06.384Z,19.64
2022-08-07T00:43:59.450Z,19.58
2022-08-07T00:48:35.897Z,19.55
2022-08-07T00:53:50.550Z,19.34
2022-08-07T00:59:00.311Z,19.28
2022-08-07T01:04:06.390Z,19.25
2022-08-07T01:10:04.217Z,19.20
2022-08-07T01:14:45.051Z,19.19
2022-08-07T01:19:54.437Z,19.18
2022-08-07T01:25:00.519Z,19.12
2022-08-07T01:30:07.454Z,19.03
2022-08-07T01:35:17.170Z,18.93
2022-08-07T01:40:24.223Z,18.85
2022-08-07T01:45:37.285Z,18.84
2022-08-07T01:50:55.586Z,18.75
2022-08-07T01:56:05.273Z,18.63
2022-08-07T02:01:25.455Z,18.62
2022-08-07T02:06:37.059Z,18.49
2022-08-07T02:12:04.062Z,18.48
2022-08-07T02:17:24.741Z,18.39
2022-08-07T02:22:32.507Z,18.31
2022-08-07T02:27:41.186Z,18.20
2022-08-07T02:33:01.069Z,18.17
2022-08-07T02:38:09.996Z,18.09
2022-08-07T02:43:17.524Z,18.14
2022-08-07T02:48:22.015Z,18.01
2022-08-07T02:53:29.091Z,18.00
2022-08-07T02:58:35.594Z,18.07
2022-08-07T03:03:50.192Z,18.01
2022-08-07T03:09:02.063Z,17.93
2022-08-07T03:14:07.148Z,18.00
2022-08-07T03:19:11.364Z,17.92
2022-08-07T03:24:26.030Z,17.98
2022-08-07T03:29:39.226Z,17.87
2022-08-07T03:35:16.660Z,17.75
2022-08-07T03:40:17.035Z,17.73
2022-08-07T03:45:30.996Z,17.70
2022-08-07T03:50:56.146Z,17.73
2022-08-07T03:56:04.435Z,17.74
2022-08-07T04:01:15.274Z,17.69
2022-08-07T04:06:37.534Z,17.70
2022-08-07T04:12:27.667Z,17.71
2022-08-07T04:17:20.583Z,17.69
2022-08-07T04:22:28.941Z,17.80
2022-08-07T04:27:43.970Z,17.84
2022-08-07T04:32:58.441Z,17.91
2022-08-07T04:38:08.262Z,17.99
2022-08-07T04:43:16.329Z,18.11
2022-08-07T04:48:31.764Z,18.24
2022-08-07T04:54:06.422Z,18.36
2022-08-07T05:00:08.059Z,18.55
2022-08-07T05:04:47.099Z,18.72
2022-08-07T05:09:59.111Z,18.90
2022-08-07T05:15:23.058Z,19.12
2022-08-07T05:20:36.263Z,19.28
2022-08-07T05:26:10.738Z,19.38
2022-08-07T05:31:07.915Z,19.59
2022-08-07T05:36:22.498Z,19.82
2022-08-07T05:42:02.556Z,20.08
2022-08-07T05:47:18.725Z,19.99
2022-08-07T05:52:32.336Z,20.36
2022-08-07T05:57:42.285Z,20.81
2022-08-07T06:02:50.213Z,21.20
2022-08-07T06:08:29.320Z,21.32
2022-08-07T06:14:12.338Z,21.54
2022-08-07T06:18:51.462Z,21.55
2022-08-07T06:24:45.742Z,22.03
2022-08-07T06:29:28.109Z,22.24
2022-08-07T06:34:33.392Z,22.27
2022-08-07T06:40:17.253Z,22.73
2022-08-07T06:45:05.842Z,22.81
2022-08-07T06:50:15.664Z,23.14
2022-08-07T06:55:53.803Z,23.10
2022-08-07T07:00:53.005Z,23.33
2022-08-07T07:06:05.156Z,23.63
2022-08-07T07:11:13.570Z,23.82
2022-08-07T07:16:39.017Z,24.13
2022-08-07T07:22:04.959Z,24.37
2022-08-07T07:27:18.307Z,24.61
2022-08-07T07:32:23.074Z,24.54
2022-08-07T07:37:49.748Z,24.80
2022-08-07T07:42:58.759Z,25.02
2022-08-07T07:48:34.821Z,25.10
2022-08-07T07:53:51.543Z,25.26
2022-08-07T07:58:57.203Z,25.62
2022-08-07T08:04:09.665Z,26.01
2022-08-07T08:09:17.917Z,26.07
2022-08-07T08:14:26.301Z,26.09
2022-08-07T08:20:19.184Z,25.99
2022-08-07T08:25:24.746Z,26.24
2022-08-07T08:30:42.879Z,26.64
2022-08-07T08:35:55.832Z,27.04
2022-08-07T08:41:03.987Z,27.26
2022-08-07T08:46:15.118Z,27.79
2022-08-07T08:51:49.580Z,27.93
2022-08-07T08:56:49.794Z,27.39
2022-08-07T09:02:14.279Z,27.72
2022-08-07T09:07:25.794Z,28.32
2022-08-07T09:12:53.265Z,28.54
2022-08-07T09:18:22.619Z,28.88
2022-08-07T09:24:33.073Z,29.05
2022-08-07T09:30:01.264Z,29.39
2022-08-07T09:34:54.030Z,29.51
2022-08-07T09:40:04.997Z,29.72
2022-08-07T09:47:24.876Z,29.88
2022-08-07T09:50:51.405Z,29.88
2022-08-07T09:56:37.651Z,30.29
2022-08-07T10:01:57.712Z,29.48
2022-08-07T10:07:24.668Z,29.70
2022-08-07T10:12:45.877Z,29.32
2022-08-07T10:18:26.499Z,30.73
2022-08-07T10:24:06.776Z,31.22
2022-08-07T10:29:25.754Z,31.70
2022-08-07T10:34:49.872Z,31.79
2022-08-07T10:40:09.131Z,30.01
2022-08-07T10:45:57.794Z,30.80
2022-08-07T10:50:50.387Z,32.05
2022-08-07T10:56:04.147Z,32.61
2022-08-07T11:01:35.147Z,32.79
2022-08-07T11:07:02.427Z,33.23
2022-08-07T11:12:12.911Z,33.27
2022-08-07T11:17:23.280Z,32.43
2022-08-07T11:22:52.564Z,33.97
2022-08-07T11:28:04.524Z,34.10
2022-08-07T11:33:16.180Z,34.54
2022-08-07T11:38:28.321Z,33.27
2022-08-07T11:43:54.228Z,34.30
2022-08-07T11:49:51.130Z,35.72
2022-08-07T11:55:00.019Z,34.98
2022-08-07T12:00:19.351Z,35.61
2022-08-07T12:05:41.791Z,35.44
2022-08-07T12:11:08.168Z,35.74
2022-08-07T12:16:30.680Z,36.33
2022-08-07T12:22:35.838Z,35.91
2022-08-07T12:27:14.945Z,36.41
2022-08-07T12:32:28.735Z,36.02
2022-08-07T12:38:10.109Z,36.68
2022-08-07T12:43:01.350Z,36.73
2022-08-07T12:48:28.324Z,36.95
2022-08-07T12:54:03.304Z,33.96
2022-08-07T12:59:09.691Z,34.68
2022-08-07T13:04:48.991Z,35.32
2022-08-07T13:10:39.470Z,35.69
2022-08-07T13:15:56.131Z,33.75
2022-08-07T13:21:10.841Z,35.32
2022-08-07T13:26:18.495Z,35.91
2022-08-07T13:31:32.077Z,34.68
2022-08-07T13:36:42.340Z,35.56
2022-08-07T13:41:51.606Z,35.13
2022-08-07T13:47:00.853Z,36.37
2022-08-07T13:52:26.523Z,35.98
2022-08-07T13:57:38.383Z,35.30
2022-08-07T14:02:51.182Z,33.31
2022-08-07T14:08:01.462Z,34.18
2022-08-07T14:13:07.296Z,35.00
2022-08-07T14:18:29.035Z,35.73
2022-08-07T14:24:00.843Z,36.14
2022-08-07T14:30:02.553Z,35.97
2022-08-07T14:34:30.710Z,35.76
2022-08-07T14:40:18.099Z,36.10
2022-08-07T14:45:20.797Z,35.74
2022-08-07T14:50:26.420Z,35.47
2022-08-07T14:55:34.166Z,36.63
2022-08-07T15:00:52.273Z,36.76
2022-08-07T15:16:54.920Z,34.25
2022-08-07T15:22:05.699Z,35.19
2022-08-07T15:27:23.216Z,34.91
2022-08-07T15:32:38.953Z,32.84
2022-08-07T15:38:17.471Z,32.46
2022-08-07T15:49:11.964Z,34.95
2022-08-07T15:54:12.093Z,33.52
2022-08-07T15:59:20.155Z,33.80
2022-08-07T16:04:44.134Z,33.63
2022-08-07T16:09:51.786Z,32.54
2022-08-07T16:15:07.951Z,31.53
2022-08-07T16:21:43.811Z,32.67
2022-08-07T16:26:16.266Z,31.83
2022-08-07T16:31:50.072Z,31.25
2022-08-07T16:38:05.455Z,31.70
2022-08-07T16:43:01.831Z,32.13
2022-08-07T16:48:53.655Z,31.79
2022-08-07T16:54:32.789Z,30.88
2022-08-07T16:59:45.739Z,32.10
2022-08-07T17:05:15.179Z,32.34
2022-08-07T17:10:36.469Z,32.28
2022-08-07T17:15:44.307Z,30.83
2022-08-07T17:20:56.312Z,31.72
2022-08-07T17:26:24.331Z,31.91
2022-08-07T17:31:44.177Z,31.57
2022-08-07T17:38:05.099Z,31.46
2022-08-07T17:42:59.814Z,31.34
2022-08-07T17:48:11.278Z,30.56
2022-08-07T17:54:00.208Z,31.14
2022-08-07T17:59:00.600Z,30.88
2022-08-07T18:04:16.326Z,30.53
2022-08-07T18:10:05.116Z,30.74
2022-08-07T18:14:52.418Z,30.71
2022-08-07T18:21:07.070Z,30.88
2022-08-07T18:25:39.389Z,30.09
2022-08-07T18:30:53.285Z,29.72
2022-08-07T18:36:08.271Z,29.63
2022-08-07T18:41:20.712Z,29.44
2022-08-07T18:46:29.667Z,29.17
2022-08-07T18:52:38.701Z,28.88
2022-08-07T18:57:31.048Z,28.90
2022-08-07T19:02:42.200Z,28.43
2022-08-07T19:07:58.633Z,28.10
2022-08-07T19:13:10.306Z,27.60
2022-08-07T19:18:34.421Z,27.43
2022-08-07T19:23:58.489Z,27.08
2022-08-07T19:31:03.674Z,27.12
2022-08-07T19:34:32.598Z,27.13
2022-08-07T19:39:40.780Z,26.71
2022-08-07T19:45:08.670Z,26.38
2022-08-07T19:50:44.294Z,26.26
2022-08-07T19:55:57.847Z,26.22
2022-08-07T20:01:01.985Z,25.96
2022-08-07T20:06:06.881Z,25.98
2022-08-07T20:11:34.299Z,25.83
2022-08-07T20:16:48.026Z,25.48
2022-08-07T20:21:58.317Z,25.50
2022-08-07T20:27:07.471Z,25.19
2022-08-07T20:32:22.677Z,25.43
2022-08-07T20:37:34.115Z,25.25
2022-08-07T20:42:44.381Z,25.49
2022-08-07T20:47:55.603Z,25.13
2022-08-07T20:53:01.442Z,25.20
2022-08-07T20:58:11.929Z,25.33
2022-08-07T21:03:25.894Z,25.14
2022-08-07T21:08:38.031Z,25.10
2022-08-07T21:14:16.380Z,25.03
2022-08-07T21:19:14.066Z,24.78
2022-08-07T21:24:27.719Z,24.67
2022-08-07T21:29:42.831Z,24.56
2022-08-07T21:35:00.823Z,24.46
2022-08-07T21:40:08.657Z,24.43
2022-08-07T21:46:08.842Z,24.32
2022-08-07T21:50:55.260Z,24.22
2022-08-07T21:56:16.661Z,24.13
2022-08-07T22:02:07.613Z,24.01
2022-08-07T22:07:08.310Z,23.95
2022-08-07T22:12:16.172Z,23.86
2022-08-07T22:17:22.117Z,23.56
2022-08-07T22:22:33.982Z,23.49
2022-08-07T22:28:08.336Z,23.42
2022-08-07T22:33:12.428Z,23.20
2022-08-07T22:38:31.135Z,23.00
2022-08-07T22:43:38.036Z,23.17
2022-08-07T22:49:12.713Z,23.10
2022-08-07T22:54:48.731Z,22.98
2022-08-07T23:00:01.235Z,22.86
2022-08-07T23:06:15.061Z,22.76
2022-08-07T23:10:49.972Z,22.72
2022-08-07T23:16:46.382Z,22.64
2022-08-07T23:21:36.619Z,22.56
2022-08-07T23:26:54.964Z,22.45
2022-08-07T23:34:23.334Z,22.41
2022-08-07T23:38:01.906Z,22.29
2022-08-07T23:43:35.323Z,22.28
2022-08-07T23:49:05.938Z,22.15
2022-08-07T23:54:19.550Z,22.10
